Tholen, Netherlands
Current Conditions -  °F | °C
As of 5:25 PM on Monday 24 Nov 2014 (Local Time) from EHWO Reporting Station
Broken Clouds Broken Clouds  
Wind Chill: 41°   Ceiling: 23000
Heat Index: 41°   Visibility: 6mi
Dew Point: 41°   Wind: 2mph
Humidity: 100%   Direction: 50°NE
Pressure: 30.3"   Gusts: NA
Location:  51.53°N, 4.22°E
Report Text: EHWO 241625Z AUTO 05002KT 9999 BKN230 05/05 Q1026 BLU
Loading
Personal Weather Stations






























Interactive Weather Map New forecast layout! Learn more

10-Day Weather Forecast

Advertisements
Track Severe Weather on mobile